General Abelardo L. Rodríguez International Airport
MMTJ : rendu visible

Aérodrome :











RETROUVEZ-NOUS SUR...

 
LOGIN :

S'inscrire | Disclaimer

   EN    FR    IT 

 









Légende :    VFR   VFR Marginal   IFR   IFR Intensif   IFR Très Intensif
Visi : 
Plafond : 
>= 8 km
>= 3000ft
5 à 8 km
1000 à 3000 ft
1500m à 5 km
500 à 1000 ft
800 à 1500m
200 à 500 ft
< 800m
< 200 ft
Symboles :   Orages  Brouillard  Fortes neiges  Fortes précipitations  Vent > 20 kt






- Altitude de l'aérodrome : 489 ft
- Code IATA : TIJ


MMTJ - General Abelardo L. Rodríguez International

DERNIER METAR :
  • 250542Z 00000KT 0SM FG VV000 11/11 A3005 RMK SLP175 53019 961 8//// TWR VSBY

METARs EXPIRÉS :
  • 250521Z 00000KT 0SM FG VV000 11/11 A3005 RMK 8//// TWR VSBY
  • 250443Z 35004KT 1/4SM FG VV000 11/11 A3005 RMK 8////
  • 250420Z 33005KT 1/4SM FG VV000 11/11 A3005 RMK 8////
  • 250349Z 29003KT 1/4SM FG VV000 10/10 A3004 RMK 8////
  • 250242Z 36004KT 8SM SKC 14/11 A3001 RMK SLP158 54000 980 HZY ISOL CI

TAF TAF MMTJ
Valide du 25 à 06h jusqu'au 26 à 12h UTC


250451Z 2506/2612 33005KT 1/4SM FG VV001 TX21/2520Z TN09/2512Z
BECMG 2514/2515 1SM BR HZ SCT003 BKN005
FM251600 06005KT P6SM SCT030 BKN250
FM251800 04005KT P6SM BKN250
FM260600 31005KT 6SM HZ BKN010
FM260900 00000KT 1SM BR OVC005



MET'MAP, la Météo Aéronautique d'un coup d'oeil ! - Copyright ORBIFLY Décembre 2007 - Disclaimer

ORBIFLY MET'MAP TEAM :

Programmation & Développement : Alexandra Zaïnal
Sur une idée originale de : Baudouin d'Aumeries
Assistance à la programmation : Marc-Olivier Méhu
Soutien technique & logistique : Manuel Goepfert

Contact : metmap@orbifly.com




SOURCES & CREDITS :

   NOAA       Earth
Advisory